Airfield :
LOGIN :

Register | Disclaimer

   EN    FR    IT 

 










Legend :    VFR   Marginal VFR   IFR   Intensive IFR   Very Intensive IFR
Visi :
Ceiling :
>= 8 km
>= 3000ft
5 to 8 km
1000 to 3000 ft
1500m to 5 km
500 to 1000 ft
800 to 1500m
200 to 500 ft
< 800m
< 200 ft
Symbols :   Thunderstorms  Fog  Heavy snow  Heavy precipitations  Wind > 20 kt
SIGMETs :     Misc.  Thunderstorms  Icing  Turbulence  Mountain Waves  Volcanic Ashes







- Airport Elevation : 162 ft
- IATA code : BOD
- Download approach charts


LFBD - Bordeaux / Merignac

CURRENT METAR :
  • 242230Z AUTO 27006KT CAVOK 14/13 Q1019 NOSIG

EXPIRED METARs :
  • 242200Z AUTO 28007KT CAVOK 14/12 Q1019 NOSIG
  • 242130Z AUTO 29007KT CAVOK 14/12 Q1020 NOSIG
  • 242100Z AUTO 30007KT 280V350 CAVOK 15/12 Q1019 NOSIG
  • 242030Z AUTO 30005KT CAVOK 15/12 Q1019 NOSIG
  • 242000Z AUTO 30008KT CAVOK 15/12 Q1018 NOSIG

TAF TAF LFBD
Valid from the 24 at 18:00 until the 26 at 00:00 UTC


241700Z 2418/2524 29010KT CAVOK TX22/2514Z TN14/2501Z
PROB30
TEMPO 2501/2505 3000 BR BKN005
BECMG 2509/2511 BKN035
BECMG 2514/2516 CAVOK
BECMG 2520/2522 BKN012
ATIS : +33 5 57 92 81 04
No reported NOTAMs for that airfield.



MET'MAP, your aeronautical weather chart ! - Copyright ORBIFLY December 2007 - Disclaimer

ORBIFLY MET'MAP TEAM :

Programming & Development : Alexandra Zaïnal
Concept & Development : Baudouin d'Aumeries
Co-Development & Prog : Marc-Olivier Méhu
Technical & hardware support : Manuel Goepfert

Contact : metmap@orbifly.com




SOURCES & CREDITS :

   NOAA